logo
Search for airport 
image banner adimage banner adimage banner ad
image banner ad

LOPB - Braunau Am Inn Kh

Located in District Braunau, Austria

ICAO - , IATA -

Data provided by Airmate  

General information

Coordinates: N48°15'22" E13°1'60"
Elevation is 1230 feet MSL.
 
View others Airports in Upper Austria

Operational data

Special qualification required
Current time UTC:
Current local time:
Weather at : LOWS - Salzburg ( 51 km )
METAR: LOWS 171850Z 18003KT 160V220 9999 -RA FEW005 SCT011 BKN022 04/02 Q1010 RERA TEMPO 29010KT RA BKN014
TAF: TAF LOWS 171715Z 1718/1818 31006KT 9999 SCT025 BKN050 TX08/1814Z TN03/1802Z TEMPO 1718/1724 30012KT 4500 SHRA FEW008 BKN012 PROB30 1719/1723 2500 SHRASN BKN008 TEMPO 1800/1810 -SHRA PROB30 1800/1808 4500 -RADZ BKN012 TEMPO 1810/1818 32012KT SHRA SCT020CB BKN035 PROB40 TEMPO 1814/1818 33015G25KT 4000 TSRA
View NOTAMs / SUP AIP / TFR affecting this airport [VIEW]
Communications frequencies: [VIEW]

Runways:

Airport contact information

Address: District Braunau Austria

Satellite view of LOPB